Scenic, South Dakota
Current Conditions -  °F | °C
As of 8:52 PM on Friday 24 Oct 2014 (Local Time) from KRAP Reporting Station
Clear Clear  
Wind Chill: 41°   Ceiling: Unl
Heat Index: 46°   Visibility: 10mi
Dew Point: 35°   Wind: 10mph
Humidity: 66%   Direction: 330°NNW
Pressure: 30.11"   Gusts: NA
Location:  43.78°N, 102.56°W
Report Text: KRAP 250252Z 33009KT 10SM CLR 08/02 A3011 RMK AO2 SLP197 T00780017 51022
Loading
Personal Weather Stations






























Interactive Weather Map New forecast layout! Learn more

10-Day Weather Forecast

Advertisements
Track Severe Weather on mobile